Bookmark and Share
Track history (hours):
 

Northern Power

Last reported at 2014-Apr-19 16:30 UTC. Time now 2014-Apr-24 19:56 UTC.
Position N 01°13' E 103°29'.

Length 264 m; draft 12.3 m.

Type: Ship (hazmat cat A). MMSI: 636091835.

NotesDate/timePositionNaut miles runAvg speedWind from/ knotsBaromVisibWave heightAir tempDewpointWater temp
2014-Apr-19 16:30N 01°13' E 103°29'1718.4
2014-Apr-19 15:33N 01°09' E 103°46'8 7.6
2014-Apr-19 14:29N 01°16' E 103°51'0 0.0
2014-Apr-19 13:26N 01°16' E 103°51'0 0.0
2014-Apr-19 12:29N 01°16' E 103°51'0 0.0
2014-Apr-19 09:17N 01°16' E 103°51'0 0.0
2014-Apr-19 08:14N 01°16' E 103°51'0 0.0
2014-Apr-19 07:26N 01°16' E 103°51'0 0.0
2014-Apr-19 06:32N 01°16' E 103°51'0 0.0
2014-Apr-19 05:32N 01°16' E 103°51'0 0.0
2014-Apr-19 04:32N 01°16' E 103°51'0 0.0
2014-Apr-19 03:32N 01°16' E 103°51'0 0.0
2014-Apr-19 02:20N 01°16' E 103°51'0 0.0
2014-Apr-19 01:32N 01°16' E 103°51'0 0.0
2014-Apr-18 20:33N 01°16' E 103°50'1 0.5
2014-Apr-18 19:32N 01°16' E 103°50'0 0.0
2014-Apr-18 16:11N 01°16' E 103°50'0 0.0
2014-Apr-18 15:33N 01°16' E 103°50'0 0.0
2014-Apr-18 14:26N 01°16' E 103°50'0 0.0
2014-Apr-18 13:33N 01°16' E 103°50'0 0.0
2014-Apr-18 12:29N 01°16' E 103°50'0 0.0
2014-Apr-18 11:32N 01°16' E 103°50'0 0.0
2014-Apr-18 10:11N 01°16' E 103°50'0 0.0
2014-Apr-18 09:29N 01°16' E 103°50'0 0.0
2014-Apr-18 08:32N 01°16' E 103°50'0 0.0
2014-Apr-18 06:11N 01°16' E 103°50'0 0.0
2014-Apr-18 04:29N 01°16' E 103°50'0 0.0
2014-Apr-18 03:32N 01°16' E 103°50'0 0.0
2014-Apr-18 02:32N 01°16' E 103°50'0 0.0
2014-Apr-18 01:26N 01°16' E 103°50'0 0.0
2014-Apr-17 23:32N 01°16' E 103°50'0 0.0
2014-Apr-17 22:29N 01°16' E 103°50'0 0.0
2014-Apr-17 21:32N 01°16' E 103°50'0 0.0
2014-Apr-17 20:32N 01°16' E 103°50'0 0.0
2014-Apr-17 19:29N 01°16' E 103°50'0 0.3
2014-Apr-17 18:18N 01°16' E 103°50'3 3.7
2014-Apr-17 17:29N 01°14' E 103°53'1 1.0
2014-Apr-17 16:33N 01°14' E 103°53'4 4.2
2014-Apr-17 15:33N 01°11' E 103°50'7 6.5
2014-Apr-17 14:33N 01°07' E 103°45'9 8.5
2014-Apr-17 13:33N 01°04' E 103°37'1110.6
2014-Apr-17 12:32N 01°09' E 103°28'  

Dump ship's entire track history

sailing weather and tide predictions

Northern Power — A8TL6 — position and weather